sensor_id;sensor_type;location;lat;lon;timestamp;P1;durP1;ratioP1;P2;durP2;ratioP2
74616;SDS011;63123;50.906;4.198;2023-09-18T00:00:22;5.07;;;4.60;;
74616;SDS011;63123;50.906;4.198;2023-09-18T00:02:47;5.57;;;5.07;;
74616;SDS011;63123;50.906;4.198;2023-09-18T00:05:13;5.32;;;4.93;;
74616;SDS011;63123;50.906;4.198;2023-09-18T00:07:40;5.43;;;4.95;;
74616;SDS011;63123;50.906;4.198;2023-09-18T00:10:07;4.55;;;4.15;;
74616;SDS011;63123;50.906;4.198;2023-09-18T00:12:34;5.05;;;4.65;;
74616;SDS011;63123;50.906;4.198;2023-09-18T00:15:00;4.80;;;4.40;;
74616;SDS011;63123;50.906;4.198;2023-09-18T00:17:26;4.93;;;4.47;;
74616;SDS011;63123;50.906;4.198;2023-09-18T00:19:52;5.53;;;5.10;;
74616;SDS011;63123;50.906;4.198;2023-09-18T00:22:18;5.22;;;4.57;;
74616;SDS011;63123;50.906;4.198;2023-09-18T00:24:44;5.25;;;4.75;;
74616;SDS011;63123;50.906;4.198;2023-09-18T00:27:09;4.80;;;4.40;;
74616;SDS011;63123;50.906;4.198;2023-09-18T00:29:36;5.72;;;5.22;;
74616;SDS011;63123;50.906;4.198;2023-09-18T00:32:02;5.28;;;4.63;;
74616;SDS011;63123;50.906;4.198;2023-09-18T00:34:29;4.72;;;4.32;;
74616;SDS011;63123;50.906;4.198;2023-09-18T00:36:56;5.57;;;5.07;;
74616;SDS011;63123;50.906;4.198;2023-09-18T00:39:22;4.50;;;4.10;;
74616;SDS011;63123;50.906;4.198;2023-09-18T00:41:48;4.85;;;4.20;;
74616;SDS011;63123;50.906;4.198;2023-09-18T00:44:18;5.32;;;4.88;;
74616;SDS011;63123;50.906;4.198;2023-09-18T00:46:48;4.50;;;4.03;;
74616;SDS011;63123;50.906;4.198;2023-09-18T00:49:15;5.22;;;4.82;;
74616;SDS011;63123;50.906;4.198;2023-09-18T00:51:41;5.65;;;4.85;;
74616;SDS011;63123;50.906;4.198;2023-09-18T00:54:08;4.85;;;4.45;;
74616;SDS011;63123;50.906;4.198;2023-09-18T00:56:35;4.95;;;4.55;;
74616;SDS011;63123;50.906;4.198;2023-09-18T00:59:01;5.22;;;4.75;;
74616;SDS011;63123;50.906;4.198;2023-09-18T01:01:28;5.00;;;4.60;;
74616;SDS011;63123;50.906;4.198;2023-09-18T01:03:55;4.85;;;4.30;;
74616;SDS011;63123;50.906;4.198;2023-09-18T01:06:24;5.53;;;4.20;;
74616;SDS011;63123;50.906;4.198;2023-09-18T01:08:52;4.60;;;4.20;;
74616;SDS011;63123;50.906;4.198;2023-09-18T01:11:21;4.53;;;4.15;;
74616;SDS011;63123;50.906;4.198;2023-09-18T01:14:16;5.00;;;4.57;;
74616;SDS011;63123;50.906;4.198;2023-09-18T01:16:50;4.75;;;4.22;;
74616;SDS011;63123;50.906;4.198;2023-09-18T01:22:17;4.78;;;4.38;;
74616;SDS011;63123;50.906;4.198;2023-09-18T01:24:44;4.95;;;4.55;;
74616;SDS011;63123;50.906;4.198;2023-09-18T01:27:13;4.32;;;3.95;;
74616;SDS011;63123;50.906;4.198;2023-09-18T01:29:39;4.97;;;4.57;;
74616;SDS011;63123;50.906;4.198;2023-09-18T01:32:06;4.50;;;4.10;;
74616;SDS011;63123;50.906;4.198;2023-09-18T01:34:42;4.53;;;4.13;;
74616;SDS011;63123;50.906;4.198;2023-09-18T01:37:12;4.43;;;4.03;;
74616;SDS011;63123;50.906;4.198;2023-09-18T01:39:41;4.60;;;4.30;;
74616;SDS011;63123;50.906;4.198;2023-09-18T01:42:08;4.57;;;4.18;;
74616;SDS011;63123;50.906;4.198;2023-09-18T01:44:37;4.68;;;4.28;;
74616;SDS011;63123;50.906;4.198;2023-09-18T01:47:03;4.78;;;4.38;;
74616;SDS011;63123;50.906;4.198;2023-09-18T01:49:33;4.85;;;4.45;;
74616;SDS011;63123;50.906;4.198;2023-09-18T01:52:00;4.35;;;3.95;;
74616;SDS011;63123;50.906;4.198;2023-09-18T01:54:26;4.25;;;3.95;;
74616;SDS011;63123;50.906;4.198;2023-09-18T01:56:52;4.20;;;3.80;;
74616;SDS011;63123;50.906;4.198;2023-09-18T01:59:19;4.20;;;3.90;;
74616;SDS011;63123;50.906;4.198;2023-09-18T02:01:45;4.10;;;3.80;;
74616;SDS011;63123;50.906;4.198;2023-09-18T02:04:11;3.95;;;3.65;;
74616;SDS011;63123;50.906;4.198;2023-09-18T02:06:37;4.20;;;3.83;;
74616;SDS011;63123;50.906;4.198;2023-09-18T02:09:02;4.35;;;3.95;;
74616;SDS011;63123;50.906;4.198;2023-09-18T02:11:28;4.57;;;4.18;;
74616;SDS011;63123;50.906;4.198;2023-09-18T02:13:54;4.03;;;3.72;;
74616;SDS011;63123;50.906;4.198;2023-09-18T02:16:21;4.10;;;3.80;;
74616;SDS011;63123;50.906;4.198;2023-09-18T02:18:49;3.97;;;3.67;;
74616;SDS011;63123;50.906;4.198;2023-09-18T02:21:18;4.28;;;3.97;;
74616;SDS011;63123;50.906;4.198;2023-09-18T02:23:50;4.70;;;4.20;;
74616;SDS011;63123;50.906;4.198;2023-09-18T02:26:19;4.10;;;3.80;;
74616;SDS011;63123;50.906;4.198;2023-09-18T02:28:47;4.20;;;3.80;;
74616;SDS011;63123;50.906;4.198;2023-09-18T02:31:13;3.80;;;3.50;;
74616;SDS011;63123;50.906;4.198;2023-09-18T02:33:39;4.55;;;4.15;;
74616;SDS011;63123;50.906;4.198;2023-09-18T02:36:05;4.07;;;3.75;;
74616;SDS011;63123;50.906;4.198;2023-09-18T02:38:31;4.47;;;4.07;;
74616;SDS011;63123;50.906;4.198;2023-09-18T02:41:00;4.03;;;3.72;;
74616;SDS011;63123;50.906;4.198;2023-09-18T02:43:26;4.05;;;3.75;;
74616;SDS011;63123;50.906;4.198;2023-09-18T02:45:52;4.13;;;3.83;;
74616;SDS011;63123;50.906;4.198;2023-09-18T02:48:18;3.40;;;3.10;;
74616;SDS011;63123;50.906;4.198;2023-09-18T02:50:44;4.63;;;4.22;;
74616;SDS011;63123;50.906;4.198;2023-09-18T02:53:28;4.20;;;3.90;;
74616;SDS011;63123;50.906;4.198;2023-09-18T02:55:54;3.80;;;3.50;;
74616;SDS011;63123;50.906;4.198;2023-09-18T02:58:21;3.85;;;3.38;;
74616;SDS011;63123;50.906;4.198;2023-09-18T03:00:48;4.00;;;3.70;;
74616;SDS011;63123;50.906;4.198;2023-09-18T03:03:15;3.22;;;3.03;;
74616;SDS011;63123;50.906;4.198;2023-09-18T03:05:41;3.85;;;3.55;;
74616;SDS011;63123;50.906;4.198;2023-09-18T03:08:08;4.22;;;3.92;;
74616;SDS011;63123;50.906;4.198;2023-09-18T03:10:35;3.90;;;3.60;;
74616;SDS011;63123;50.906;4.198;2023-09-18T03:13:01;4.05;;;3.75;;
74616;SDS011;63123;50.906;4.198;2023-09-18T03:15:27;3.72;;;3.42;;
74616;SDS011;63123;50.906;4.198;2023-09-18T03:17:53;3.95;;;3.65;;
74616;SDS011;63123;50.906;4.198;2023-09-18T03:20:22;4.32;;;3.92;;
74616;SDS011;63123;50.906;4.198;2023-09-18T03:22:52;4.22;;;3.90;;
74616;SDS011;63123;50.906;4.198;2023-09-18T03:25:22;3.60;;;3.30;;
74616;SDS011;63123;50.906;4.198;2023-09-18T03:27:50;3.42;;;3.22;;
74616;SDS011;63123;50.906;4.198;2023-09-18T03:30:17;3.70;;;3.40;;
74616;SDS011;63123;50.906;4.198;2023-09-18T03:32:44;3.63;;;3.30;;
74616;SDS011;63123;50.906;4.198;2023-09-18T03:35:10;3.78;;;3.47;;
74616;SDS011;63123;50.906;4.198;2023-09-18T03:37:50;3.40;;;3.10;;
74616;SDS011;63123;50.906;4.198;2023-09-18T03:40:17;4.30;;;3.90;;
74616;SDS011;63123;50.906;4.198;2023-09-18T03:42:43;3.58;;;3.28;;
74616;SDS011;63123;50.906;4.198;2023-09-18T03:45:10;3.78;;;3.38;;
74616;SDS011;63123;50.906;4.198;2023-09-18T03:47:36;3.72;;;3.42;;
74616;SDS011;63123;50.906;4.198;2023-09-18T03:50:04;3.72;;;3.42;;
74616;SDS011;63123;50.906;4.198;2023-09-18T03:52:31;3.22;;;3.00;;
74616;SDS011;63123;50.906;4.198;2023-09-18T03:54:56;3.30;;;3.00;;
74616;SDS011;63123;50.906;4.198;2023-09-18T03:57:22;3.10;;;2.90;;
74616;SDS011;63123;50.906;4.198;2023-09-18T03:59:47;3.53;;;3.22;;
74616;SDS011;63123;50.906;4.198;2023-09-18T04:02:13;3.45;;;3.15;;
74616;SDS011;63123;50.906;4.198;2023-09-18T04:04:39;3.22;;;2.92;;
74616;SDS011;63123;50.906;4.198;2023-09-18T04:07:08;3.28;;;3.05;;
74616;SDS011;63123;50.906;4.198;2023-09-18T04:09:34;3.22;;;3.00;;
74616;SDS011;63123;50.906;4.198;2023-09-18T04:12:00;3.30;;;3.03;;
74616;SDS011;63123;50.906;4.198;2023-09-18T04:14:26;4.05;;;3.50;;
74616;SDS011;63123;50.906;4.198;2023-09-18T04:16:52;3.65;;;3.38;;
74616;SDS011;63123;50.906;4.198;2023-09-18T04:19:17;3.45;;;3.15;;
74616;SDS011;63123;50.906;4.198;2023-09-18T04:21:43;3.58;;;3.28;;
74616;SDS011;63123;50.906;4.198;2023-09-18T04:24:09;3.10;;;2.90;;
74616;SDS011;63123;50.906;4.198;2023-09-18T04:26:34;3.30;;;3.00;;
74616;SDS011;63123;50.906;4.198;2023-09-18T04:29:00;3.08;;;2.88;;
74616;SDS011;63123;50.906;4.198;2023-09-18T04:31:26;3.20;;;2.90;;
74616;SDS011;63123;50.906;4.198;2023-09-18T04:33:52;2.90;;;2.70;;
74616;SDS011;63123;50.906;4.198;2023-09-18T04:36:18;3.08;;;2.83;;
74616;SDS011;63123;50.906;4.198;2023-09-18T04:38:44;3.70;;;3.30;;
74616;SDS011;63123;50.906;4.198;2023-09-18T04:41:10;2.95;;;2.75;;
74616;SDS011;63123;50.906;4.198;2023-09-18T04:43:39;3.90;;;3.50;;
74616;SDS011;63123;50.906;4.198;2023-09-18T04:46:06;3.20;;;2.90;;
74616;SDS011;63123;50.906;4.198;2023-09-18T04:48:32;2.95;;;2.65;;
74616;SDS011;63123;50.906;4.198;2023-09-18T04:50:58;3.53;;;3.22;;
74616;SDS011;63123;50.906;4.198;2023-09-18T04:53:24;2.92;;;2.72;;
74616;SDS011;63123;50.906;4.198;2023-09-18T04:55:50;2.95;;;2.75;;
74616;SDS011;63123;50.906;4.198;2023-09-18T04:58:16;4.00;;;3.20;;
74616;SDS011;63123;50.906;4.198;2023-09-18T05:00:42;2.78;;;2.58;;
74616;SDS011;63123;50.906;4.198;2023-09-18T05:03:08;3.47;;;3.17;;
74616;SDS011;63123;50.906;4.198;2023-09-18T05:05:35;3.42;;;3.13;;
74616;SDS011;63123;50.906;4.198;2023-09-18T05:08:01;3.00;;;2.80;;
74616;SDS011;63123;50.906;4.198;2023-09-18T05:10:28;3.08;;;2.50;;
74616;SDS011;63123;50.906;4.198;2023-09-18T05:12:54;2.90;;;2.63;;
74616;SDS011;63123;50.906;4.198;2023-09-18T05:15:24;3.08;;;2.78;;
74616;SDS011;63123;50.906;4.198;2023-09-18T05:17:51;3.20;;;2.97;;
74616;SDS011;63123;50.906;4.198;2023-09-18T05:20:21;2.90;;;2.60;;
74616;SDS011;63123;50.906;4.198;2023-09-18T05:22:49;2.55;;;2.35;;
74616;SDS011;63123;50.906;4.198;2023-09-18T05:25:18;2.80;;;2.60;;
74616;SDS011;63123;50.906;4.198;2023-09-18T05:27:44;2.92;;;2.72;;
74616;SDS011;63123;50.906;4.198;2023-09-18T05:30:14;2.60;;;2.40;;
74616;SDS011;63123;50.906;4.198;2023-09-18T05:32:41;2.83;;;2.63;;
74616;SDS011;63123;50.906;4.198;2023-09-18T05:35:08;2.60;;;2.40;;
74616;SDS011;63123;50.906;4.198;2023-09-18T05:37:39;3.05;;;2.63;;
74616;SDS011;63123;50.906;4.198;2023-09-18T05:40:05;2.72;;;2.53;;
74616;SDS011;63123;50.906;4.198;2023-09-18T05:42:34;2.83;;;2.63;;
74616;SDS011;63123;50.906;4.198;2023-09-18T05:45:01;2.70;;;2.50;;
74616;SDS011;63123;50.906;4.198;2023-09-18T05:47:29;2.55;;;2.35;;
74616;SDS011;63123;50.906;4.198;2023-09-18T05:49:56;2.50;;;2.30;;
74616;SDS011;63123;50.906;4.198;2023-09-18T05:52:22;2.72;;;2.53;;
74616;SDS011;63123;50.906;4.198;2023-09-18T05:54:48;2.40;;;2.20;;
74616;SDS011;63123;50.906;4.198;2023-09-18T05:57:14;2.75;;;2.55;;
74616;SDS011;63123;50.906;4.198;2023-09-18T05:59:41;2.45;;;2.25;;
74616;SDS011;63123;50.906;4.198;2023-09-18T06:02:08;3.05;;;2.30;;
74616;SDS011;63123;50.906;4.198;2023-09-18T06:04:34;2.65;;;2.45;;
74616;SDS011;63123;50.906;4.198;2023-09-18T06:07:02;2.85;;;2.65;;
74616;SDS011;63123;50.906;4.198;2023-09-18T06:09:28;2.80;;;2.60;;
74616;SDS011;63123;50.906;4.198;2023-09-18T06:11:54;2.83;;;2.60;;
74616;SDS011;63123;50.906;4.198;2023-09-18T06:14:19;2.63;;;2.42;;
74616;SDS011;63123;50.906;4.198;2023-09-18T06:16:45;2.13;;;1.98;;
74616;SDS011;63123;50.906;4.198;2023-09-18T06:19:11;2.00;;;1.90;;
74616;SDS011;63123;50.906;4.198;2023-09-18T06:21:36;2.40;;;2.20;;
74616;SDS011;63123;50.906;4.198;2023-09-18T06:24:02;2.72;;;2.53;;
74616;SDS011;63123;50.906;4.198;2023-09-18T06:26:28;2.40;;;2.20;;
74616;SDS011;63123;50.906;4.198;2023-09-18T06:28:53;2.40;;;2.20;;
74616;SDS011;63123;50.906;4.198;2023-09-18T06:31:20;2.72;;;2.35;;
74616;SDS011;63123;50.906;4.198;2023-09-18T06:33:46;2.35;;;2.20;;
74616;SDS011;63123;50.906;4.198;2023-09-18T06:36:12;2.28;;;2.08;;
74616;SDS011;63123;50.906;4.198;2023-09-18T06:38:38;2.20;;;2.00;;
74616;SDS011;63123;50.906;4.198;2023-09-18T06:41:04;2.38;;;2.17;;
74616;SDS011;63123;50.906;4.198;2023-09-18T06:43:29;2.17;;;1.98;;
74616;SDS011;63123;50.906;4.198;2023-09-18T06:45:55;2.25;;;2.05;;
74616;SDS011;63123;50.906;4.198;2023-09-18T06:48:23;2.25;;;2.05;;
74616;SDS011;63123;50.906;4.198;2023-09-18T06:50:49;2.33;;;2.13;;
74616;SDS011;63123;50.906;4.198;2023-09-18T06:53:14;2.25;;;2.08;;
74616;SDS011;63123;50.906;4.198;2023-09-18T06:55:40;2.47;;;2.28;;
74616;SDS011;63123;50.906;4.198;2023-09-18T06:58:06;2.33;;;2.13;;
74616;SDS011;63123;50.906;4.198;2023-09-18T07:00:31;2.33;;;2.13;;
74616;SDS011;63123;50.906;4.198;2023-09-18T07:02:57;2.47;;;2.28;;
74616;SDS011;63123;50.906;4.198;2023-09-18T07:05:23;2.50;;;2.30;;
74616;SDS011;63123;50.906;4.198;2023-09-18T07:07:48;2.35;;;2.15;;
74616;SDS011;63123;50.906;4.198;2023-09-18T07:10:14;2.00;;;1.90;;
74616;SDS011;63123;50.906;4.198;2023-09-18T07:12:40;2.35;;;2.10;;
74616;SDS011;63123;50.906;4.198;2023-09-18T07:15:05;2.45;;;2.25;;
74616;SDS011;63123;50.906;4.198;2023-09-18T07:17:32;2.55;;;2.35;;
74616;SDS011;63123;50.906;4.198;2023-09-18T07:19:58;2.45;;;2.25;;
74616;SDS011;63123;50.906;4.198;2023-09-18T07:22:25;2.10;;;1.90;;
74616;SDS011;63123;50.906;4.198;2023-09-18T07:24:51;2.50;;;2.17;;
74616;SDS011;63123;50.906;4.198;2023-09-18T07:27:16;1.95;;;1.83;;
74616;SDS011;63123;50.906;4.198;2023-09-18T07:29:42;2.20;;;2.00;;
74616;SDS011;63123;50.906;4.198;2023-09-18T07:32:08;2.20;;;2.03;;
74616;SDS011;63123;50.906;4.198;2023-09-18T07:34:34;2.50;;;2.30;;
74616;SDS011;63123;50.906;4.198;2023-09-18T07:37:00;2.75;;;2.22;;
74616;SDS011;63123;50.906;4.198;2023-09-18T07:39:26;2.03;;;1.83;;
74616;SDS011;63123;50.906;4.198;2023-09-18T07:41:51;2.85;;;2.17;;
74616;SDS011;63123;50.906;4.198;2023-09-18T07:44:21;2.10;;;1.90;;
74616;SDS011;63123;50.906;4.198;2023-09-18T07:46:46;2.10;;;1.90;;
74616;SDS011;63123;50.906;4.198;2023-09-18T07:49:12;1.85;;;1.70;;
74616;SDS011;63123;50.906;4.198;2023-09-18T07:51:39;2.20;;;2.00;;
74616;SDS011;63123;50.906;4.198;2023-09-18T07:54:06;2.10;;;1.90;;
74616;SDS011;63123;50.906;4.198;2023-09-18T07:56:32;2.20;;;2.00;;
74616;SDS011;63123;50.906;4.198;2023-09-18T07:58:59;2.58;;;2.17;;
74616;SDS011;63123;50.906;4.198;2023-09-18T08:01:25;2.30;;;2.05;;
74616;SDS011;63123;50.906;4.198;2023-09-18T08:03:52;2.20;;;1.88;;
74616;SDS011;63123;50.906;4.198;2023-09-18T08:06:18;2.20;;;2.00;;
74616;SDS011;63123;50.906;4.198;2023-09-18T08:08:44;2.03;;;1.92;;
74616;SDS011;63123;50.906;4.198;2023-09-18T08:11:10;2.60;;;2.40;;
74616;SDS011;63123;50.906;4.198;2023-09-18T08:13:36;2.42;;;2.10;;
74616;SDS011;63123;50.906;4.198;2023-09-18T08:16:06;2.30;;;2.10;;
74616;SDS011;63123;50.906;4.198;2023-09-18T08:18:32;2.38;;;2.17;;
74616;SDS011;63123;50.906;4.198;2023-09-18T08:20:57;2.22;;;2.05;;
74616;SDS011;63123;50.906;4.198;2023-09-18T08:23:26;2.50;;;2.13;;
74616;SDS011;63123;50.906;4.198;2023-09-18T08:25:52;2.45;;;2.22;;
74616;SDS011;63123;50.906;4.198;2023-09-18T08:28:21;1.75;;;1.65;;
74616;SDS011;63123;50.906;4.198;2023-09-18T08:30:47;1.83;;;1.73;;
74616;SDS011;63123;50.906;4.198;2023-09-18T08:33:13;1.80;;;1.70;;
74616;SDS011;63123;50.906;4.198;2023-09-18T08:35:39;2.20;;;2.00;;
74616;SDS011;63123;50.906;4.198;2023-09-18T08:38:05;2.35;;;2.13;;
74616;SDS011;63123;50.906;4.198;2023-09-18T08:40:31;2.22;;;1.85;;
74616;SDS011;63123;50.906;4.198;2023-09-18T08:42:57;2.17;;;1.98;;
74616;SDS011;63123;50.906;4.198;2023-09-18T08:45:37;2.15;;;2.00;;
74616;SDS011;63123;50.906;4.198;2023-09-18T08:48:08;1.70;;;1.60;;
74616;SDS011;63123;50.906;4.198;2023-09-18T08:50:35;1.88;;;1.77;;
74616;SDS011;63123;50.906;4.198;2023-09-18T08:53:01;2.17;;;1.90;;
74616;SDS011;63123;50.906;4.198;2023-09-18T08:55:28;2.08;;;1.90;;
74616;SDS011;63123;50.906;4.198;2023-09-18T08:57:54;2.10;;;2.00;;
74616;SDS011;63123;50.906;4.198;2023-09-18T09:00:22;2.15;;;1.92;;
74616;SDS011;63123;50.906;4.198;2023-09-18T09:02:48;2.53;;;2.10;;
74616;SDS011;63123;50.906;4.198;2023-09-18T09:05:16;1.98;;;1.88;;
74616;SDS011;63123;50.906;4.198;2023-09-18T09:07:42;2.25;;;2.05;;
74616;SDS011;63123;50.906;4.198;2023-09-18T09:10:07;2.20;;;2.05;;
74616;SDS011;63123;50.906;4.198;2023-09-18T09:15:23;1.83;;;1.73;;
74616;SDS011;63123;50.906;4.198;2023-09-18T09:18:02;2.45;;;1.92;;
74616;SDS011;63123;50.906;4.198;2023-09-18T09:20:29;2.72;;;1.90;;
74616;SDS011;63123;50.906;4.198;2023-09-18T09:22:59;2.10;;;2.00;;
74616;SDS011;63123;50.906;4.198;2023-09-18T09:25:27;2.53;;;2.15;;
74616;SDS011;63123;50.906;4.198;2023-09-18T09:27:56;2.25;;;2.05;;
74616;SDS011;63123;50.906;4.198;2023-09-18T09:30:27;2.55;;;2.20;;
74616;SDS011;63123;50.906;4.198;2023-09-18T09:32:55;1.85;;;1.75;;
74616;SDS011;63123;50.906;4.198;2023-09-18T09:35:22;3.28;;;2.30;;
74616;SDS011;63123;50.906;4.198;2023-09-18T09:37:52;2.00;;;1.90;;
74616;SDS011;63123;50.906;4.198;2023-09-18T09:40:20;2.15;;;2.05;;
74616;SDS011;63123;50.906;4.198;2023-09-18T09:42:47;2.10;;;1.88;;
74616;SDS011;63123;50.906;4.198;2023-09-18T09:45:16;2.33;;;2.13;;
74616;SDS011;63123;50.906;4.198;2023-09-18T09:47:42;2.70;;;2.25;;
74616;SDS011;63123;50.906;4.198;2023-09-18T09:50:12;2.88;;;2.47;;
74616;SDS011;63123;50.906;4.198;2023-09-18T09:52:44;2.58;;;2.33;;
74616;SDS011;63123;50.906;4.198;2023-09-18T09:55:20;2.90;;;2.08;;
74616;SDS011;63123;50.906;4.198;2023-09-18T09:57:46;1.88;;;1.75;;
74616;SDS011;63123;50.906;4.198;2023-09-18T10:00:13;2.20;;;2.00;;
74616;SDS011;63123;50.906;4.198;2023-09-18T10:03:01;2.50;;;2.30;;
74616;SDS011;63123;50.906;4.198;2023-09-18T10:05:32;2.38;;;2.17;;
74616;SDS011;63123;50.906;4.198;2023-09-18T10:08:02;2.42;;;2.10;;
74616;SDS011;63123;50.906;4.198;2023-09-18T10:10:31;2.72;;;2.45;;
74616;SDS011;63123;50.906;4.198;2023-09-18T10:13:03;2.10;;;2.00;;
74616;SDS011;63123;50.906;4.198;2023-09-18T10:15:51;2.50;;;2.30;;
74616;SDS011;63123;50.906;4.198;2023-09-18T10:18:22;2.28;;;2.17;;
74616;SDS011;63123;50.906;4.198;2023-09-18T10:20:55;2.17;;;1.80;;
74616;SDS011;63123;50.906;4.198;2023-09-18T10:23:46;2.00;;;1.80;;
74616;SDS011;63123;50.906;4.198;2023-09-18T10:26:23;2.78;;;2.58;;
74616;SDS011;63123;50.906;4.198;2023-09-18T10:28:54;2.28;;;2.13;;
74616;SDS011;63123;50.906;4.198;2023-09-18T10:31:23;2.40;;;2.20;;
74616;SDS011;63123;50.906;4.198;2023-09-18T10:33:53;2.20;;;1.80;;
74616;SDS011;63123;50.906;4.198;2023-09-18T10:36:24;3.05;;;2.53;;
74616;SDS011;63123;50.906;4.198;2023-09-18T10:38:51;2.38;;;2.17;;
74616;SDS011;63123;50.906;4.198;2023-09-18T10:41:20;3.00;;;2.80;;
74616;SDS011;63123;50.906;4.198;2023-09-18T10:43:46;2.35;;;2.00;;
74616;SDS011;63123;50.906;4.198;2023-09-18T10:46:15;2.40;;;2.20;;
74616;SDS011;63123;50.906;4.198;2023-09-18T10:48:41;2.50;;;2.08;;
74616;SDS011;63123;50.906;4.198;2023-09-18T10:51:09;2.40;;;2.20;;
74616;SDS011;63123;50.906;4.198;2023-09-18T10:53:36;2.47;;;2.28;;
74616;SDS011;63123;50.906;4.198;2023-09-18T10:56:02;2.58;;;2.08;;
74616;SDS011;63123;50.906;4.198;2023-09-18T10:58:30;2.60;;;2.40;;
74616;SDS011;63123;50.906;4.198;2023-09-18T11:01:00;2.53;;;1.90;;
74616;SDS011;63123;50.906;4.198;2023-09-18T11:03:27;2.70;;;2.38;;
74616;SDS011;63123;50.906;4.198;2023-09-18T11:06:03;2.40;;;2.20;;
74616;SDS011;63123;50.906;4.198;2023-09-18T11:08:30;3.03;;;2.22;;
74616;SDS011;63123;50.906;4.198;2023-09-18T11:13:43;2.63;;;1.92;;
74616;SDS011;63123;50.906;4.198;2023-09-18T11:16:15;3.17;;;2.30;;
74616;SDS011;63123;50.906;4.198;2023-09-18T11:18:42;2.60;;;2.40;;
74616;SDS011;63123;50.906;4.198;2023-09-18T11:21:08;2.65;;;2.45;;
74616;SDS011;63123;50.906;4.198;2023-09-18T11:23:35;2.88;;;2.67;;
74616;SDS011;63123;50.906;4.198;2023-09-18T11:26:08;2.40;;;2.20;;
74616;SDS011;63123;50.906;4.198;2023-09-18T11:28:35;2.40;;;2.20;;
74616;SDS011;63123;50.906;4.198;2023-09-18T11:31:04;2.50;;;2.30;;
74616;SDS011;63123;50.906;4.198;2023-09-18T11:33:40;3.83;;;2.40;;
74616;SDS011;63123;50.906;4.198;2023-09-18T11:38:58;2.42;;;2.05;;
74616;SDS011;63123;50.906;4.198;2023-09-18T11:41:33;2.70;;;2.50;;
74616;SDS011;63123;50.906;4.198;2023-09-18T11:46:39;2.20;;;2.10;;
74616;SDS011;63123;50.906;4.198;2023-09-18T11:49:06;2.35;;;2.15;;
74616;SDS011;63123;50.906;4.198;2023-09-18T11:51:34;2.55;;;2.35;;
74616;SDS011;63123;50.906;4.198;2023-09-18T11:54:01;2.72;;;2.47;;
74616;SDS011;63123;50.906;4.198;2023-09-18T11:56:28;2.63;;;2.42;;
74616;SDS011;63123;50.906;4.198;2023-09-18T11:58:54;3.03;;;2.72;;
74616;SDS011;63123;50.906;4.198;2023-09-18T12:01:20;2.63;;;2.42;;
74616;SDS011;63123;50.906;4.198;2023-09-18T12:04:08;2.25;;;2.05;;
74616;SDS011;63123;50.906;4.198;2023-09-18T12:06:43;2.47;;;2.28;;
74616;SDS011;63123;50.906;4.198;2023-09-18T12:09:09;2.00;;;1.90;;
74616;SDS011;63123;50.906;4.198;2023-09-18T12:11:38;2.60;;;2.00;;
74616;SDS011;63123;50.906;4.198;2023-09-18T12:14:07;2.22;;;2.08;;
74616;SDS011;63123;50.906;4.198;2023-09-18T12:16:39;2.20;;;2.00;;
74616;SDS011;63123;50.906;4.198;2023-09-18T12:19:04;2.42;;;2.22;;
74616;SDS011;63123;50.906;4.198;2023-09-18T12:21:31;3.10;;;2.53;;
74616;SDS011;63123;50.906;4.198;2023-09-18T12:23:58;2.38;;;2.17;;
74616;SDS011;63123;50.906;4.198;2023-09-18T12:26:24;2.63;;;2.42;;
74616;SDS011;63123;50.906;4.198;2023-09-18T12:28:51;2.55;;;2.35;;
74616;SDS011;63123;50.906;4.198;2023-09-18T12:31:16;2.65;;;2.05;;
74616;SDS011;63123;50.906;4.198;2023-09-18T12:33:43;2.13;;;1.92;;
74616;SDS011;63123;50.906;4.198;2023-09-18T12:36:09;2.63;;;2.42;;
74616;SDS011;63123;50.906;4.198;2023-09-18T12:38:36;2.75;;;2.55;;
74616;SDS011;63123;50.906;4.198;2023-09-18T12:41:03;2.50;;;2.30;;
74616;SDS011;63123;50.906;4.198;2023-09-18T12:43:35;2.33;;;2.20;;
74616;SDS011;63123;50.906;4.198;2023-09-18T12:46:04;2.13;;;2.03;;
74616;SDS011;63123;50.906;4.198;2023-09-18T12:48:30;2.40;;;2.20;;
74616;SDS011;63123;50.906;4.198;2023-09-18T12:51:01;2.30;;;2.10;;
74616;SDS011;63123;50.906;4.198;2023-09-18T12:53:29;2.45;;;2.25;;
74616;SDS011;63123;50.906;4.198;2023-09-18T12:55:54;2.83;;;2.63;;
74616;SDS011;63123;50.906;4.198;2023-09-18T12:58:42;2.30;;;2.10;;
74616;SDS011;63123;50.906;4.198;2023-09-18T13:01:10;2.15;;;2.00;;
74616;SDS011;63123;50.906;4.198;2023-09-18T13:06:15;2.20;;;2.00;;
74616;SDS011;63123;50.906;4.198;2023-09-18T13:08:45;2.47;;;2.28;;
74616;SDS011;63123;50.906;4.198;2023-09-18T13:11:12;2.28;;;2.08;;
74616;SDS011;63123;50.906;4.198;2023-09-18T13:13:40;2.58;;;2.38;;
74616;SDS011;63123;50.906;4.198;2023-09-18T13:16:09;2.58;;;2.38;;
74616;SDS011;63123;50.906;4.198;2023-09-18T13:18:35;1.92;;;1.83;;
74616;SDS011;63123;50.906;4.198;2023-09-18T13:21:08;2.10;;;2.00;;
74616;SDS011;63123;50.906;4.198;2023-09-18T13:23:36;2.90;;;1.85;;
74616;SDS011;63123;50.906;4.198;2023-09-18T13:26:03;2.25;;;1.98;;
74616;SDS011;63123;50.906;4.198;2023-09-18T13:28:30;2.33;;;2.13;;
74616;SDS011;63123;50.906;4.198;2023-09-18T13:30:58;2.53;;;1.98;;
74616;SDS011;63123;50.906;4.198;2023-09-18T13:33:24;2.33;;;2.10;;
74616;SDS011;63123;50.906;4.198;2023-09-18T13:35:51;2.15;;;1.95;;
74616;SDS011;63123;50.906;4.198;2023-09-18T13:38:18;2.30;;;2.10;;
74616;SDS011;63123;50.906;4.198;2023-09-18T13:40:45;1.83;;;1.73;;
74616;SDS011;63123;50.906;4.198;2023-09-18T13:43:12;2.30;;;2.10;;
74616;SDS011;63123;50.906;4.198;2023-09-18T13:45:43;2.20;;;2.00;;
74616;SDS011;63123;50.906;4.198;2023-09-18T13:48:09;2.20;;;2.00;;
74616;SDS011;63123;50.906;4.198;2023-09-18T13:50:36;2.08;;;1.90;;
74616;SDS011;63123;50.906;4.198;2023-09-18T13:53:02;2.03;;;1.67;;
74616;SDS011;63123;50.906;4.198;2023-09-18T13:55:32;2.00;;;1.88;;
74616;SDS011;63123;50.906;4.198;2023-09-18T13:57:58;2.28;;;2.00;;
74616;SDS011;63123;50.906;4.198;2023-09-18T14:00:24;2.15;;;1.90;;
74616;SDS011;63123;50.906;4.198;2023-09-18T14:02:51;2.35;;;2.15;;
74616;SDS011;63123;50.906;4.198;2023-09-18T14:05:17;2.00;;;1.80;;
74616;SDS011;63123;50.906;4.198;2023-09-18T14:07:42;2.10;;;1.90;;
74616;SDS011;63123;50.906;4.198;2023-09-18T14:10:09;2.20;;;2.00;;
74616;SDS011;63123;50.906;4.198;2023-09-18T14:12:38;2.30;;;2.10;;
74616;SDS011;63123;50.906;4.198;2023-09-18T14:15:08;2.28;;;2.08;;
74616;SDS011;63123;50.906;4.198;2023-09-18T14:17:34;2.38;;;2.17;;
74616;SDS011;63123;50.906;4.198;2023-09-18T14:20:00;2.28;;;2.08;;
74616;SDS011;63123;50.906;4.198;2023-09-18T14:22:31;2.42;;;2.22;;
74616;SDS011;63123;50.906;4.198;2023-09-18T14:24:57;2.22;;;2.03;;
74616;SDS011;63123;50.906;4.198;2023-09-18T14:27:23;2.00;;;1.80;;
74616;SDS011;63123;50.906;4.198;2023-09-18T14:29:48;2.55;;;1.83;;
74616;SDS011;63123;50.906;4.198;2023-09-18T14:32:14;1.95;;;1.85;;
74616;SDS011;63123;50.906;4.198;2023-09-18T14:34:40;2.30;;;2.17;;
74616;SDS011;63123;50.906;4.198;2023-09-18T14:37:07;2.63;;;2.38;;
74616;SDS011;63123;50.906;4.198;2023-09-18T14:39:32;2.33;;;1.80;;
74616;SDS011;63123;50.906;4.198;2023-09-18T14:41:58;2.55;;;2.00;;
74616;SDS011;63123;50.906;4.198;2023-09-18T14:44:27;1.63;;;1.52;;
74616;SDS011;63123;50.906;4.198;2023-09-18T14:46:53;2.25;;;2.05;;
74616;SDS011;63123;50.906;4.198;2023-09-18T14:49:19;2.28;;;2.10;;
74616;SDS011;63123;50.906;4.198;2023-09-18T14:51:44;2.25;;;2.05;;
74616;SDS011;63123;50.906;4.198;2023-09-18T14:54:11;2.83;;;2.25;;
74616;SDS011;63123;50.906;4.198;2023-09-18T14:56:36;2.50;;;2.30;;
74616;SDS011;63123;50.906;4.198;2023-09-18T14:59:02;2.05;;;1.80;;
74616;SDS011;63123;50.906;4.198;2023-09-18T15:01:30;2.28;;;2.13;;
74616;SDS011;63123;50.906;4.198;2023-09-18T15:03:55;2.45;;;1.90;;
74616;SDS011;63123;50.906;4.198;2023-09-18T15:06:21;2.42;;;2.22;;